createdAt,value
2022-10-28T00:00:10.567Z,96003.78
2022-10-28T00:01:18.257Z,95992.38
2022-10-28T00:02:19.940Z,95995.16
2022-10-28T00:03:21.495Z,95997.44
2022-10-28T00:04:23.160Z,96002.28
2022-10-28T00:05:24.698Z,95996.69
2022-10-28T00:06:32.284Z,95998.19
2022-10-28T00:07:33.803Z,95990.53
2022-10-28T00:08:35.630Z,95996.69
2022-10-28T00:09:37.460Z,95999.28
2022-10-28T00:10:38.979Z,95995.16
2022-10-28T00:11:40.549Z,96000.03
2022-10-28T00:12:42.095Z,95997.75
2022-10-28T00:13:45.503Z,95994.94
2022-10-28T00:14:47.002Z,95995.69
2022-10-28T00:15:48.533Z,95996.47
2022-10-28T00:16:50.215Z,95986.53
2022-10-28T00:17:52.055Z,95986.53
2022-10-28T00:18:54.502Z,95993.66
2022-10-28T00:19:56.086Z,95994.19
2022-10-28T00:21:02.933Z,95990.63
2022-10-28T00:22:04.419Z,95993.44
2022-10-28T00:23:05.943Z,95993.44
2022-10-28T00:24:08.685Z,95986.06
2022-10-28T00:25:10.704Z,95988.38
2022-10-28T00:26:18.382Z,95987.38
2022-10-28T00:27:19.884Z,95988.38
2022-10-28T00:28:21.403Z,95983.50
2022-10-28T00:29:24.469Z,95987.59
2022-10-28T00:30:26.025Z,95986.81
2022-10-28T00:31:29.505Z,95988.88
2022-10-28T00:32:32.299Z,95991.69
2022-10-28T00:33:34.042Z,95986.81
2022-10-28T00:34:35.569Z,95988.88
2022-10-28T00:35:37.070Z,95990.94
2022-10-28T00:36:41.418Z,95983.81
2022-10-28T00:37:42.972Z,95988.66
2022-10-28T00:38:47.368Z,95984.56
2022-10-28T00:39:48.935Z,95988.66
2022-10-28T00:40:50.447Z,95982.50
2022-10-28T00:42:03.586Z,95978.50
2022-10-28T00:43:05.173Z,95984.56
2022-10-28T00:44:37.469Z,95988.22
2022-10-28T00:45:39.519Z,95981.53
2022-10-28T00:46:44.269Z,95986.38
2022-10-28T00:47:59.801Z,95986.69
2022-10-28T00:49:27.509Z,95984.44
2022-10-28T00:50:49.425Z,95981.63
2022-10-28T00:51:56.650Z,95980.56
2022-10-28T00:53:05.148Z,95988.97
2022-10-28T00:54:07.465Z,95979.25
2022-10-28T00:55:09.633Z,95989.72
2022-10-28T00:56:12.320Z,95981.84
2022-10-28T00:57:18.308Z,95989.50
2022-10-28T00:58:22.938Z,95991.03
2022-10-28T00:59:32.854Z,95993.84
2022-10-28T01:00:34.416Z,95995.34
2022-10-28T01:01:36.011Z,95988.22
2022-10-28T01:02:47.612Z,95982.91
2022-10-28T01:03:49.163Z,95989.72
2022-10-28T01:04:50.977Z,95988.22
2022-10-28T01:05:53.147Z,95990.78
2022-10-28T01:06:56.238Z,95989.28
2022-10-28T01:08:01.281Z,95980.88
2022-10-28T01:09:02.828Z,95983.69
2022-10-28T01:10:05.016Z,95983.69
2022-10-28T01:11:44.587Z,95976.13
2022-10-28T01:12:51.309Z,95984.13
2022-10-28T01:13:58.864Z,95982.63
2022-10-28T01:15:09.150Z,95984.19
2022-10-28T01:16:23.018Z,95980.63
2022-10-28T01:17:56.640Z,95981.19
2022-10-28T01:18:58.089Z,95978.50
2022-10-28T01:20:27.647Z,95981.38
2022-10-28T01:21:47.998Z,95986.03
2022-10-28T01:23:10.751Z,95977.81
2022-10-28T01:24:30.367Z,95978.06
2022-10-28T01:25:56.500Z,95972.75
2022-10-28T01:27:00.943Z,95975.03
2022-10-28T01:28:13.915Z,95973.53
2022-10-28T01:29:34.093Z,95973.97
2022-10-28T01:31:15.709Z,95983.75
2022-10-28T01:32:48.444Z,95974.56
2022-10-28T01:34:20.586Z,95985.78
2022-10-28T01:36:54.877Z,95978.81
2022-10-28T01:38:27.883Z,95981.94
2022-10-28T01:39:50.698Z,95980.63
2022-10-28T01:41:13.417Z,95983.69
2022-10-28T01:42:26.367Z,95983.44
2022-10-28T01:43:44.716Z,95986.25
2022-10-28T01:44:54.082Z,95990.03
2022-10-28T01:45:55.583Z,95989.28
2022-10-28T01:47:14.729Z,95991.41
2022-10-28T01:48:26.299Z,95986.03
2022-10-28T01:49:52.808Z,95985.03
2022-10-28T01:51:04.041Z,95988.84
2022-10-28T01:52:11.113Z,95984.97
2022-10-28T01:53:20.103Z,95986.03
2022-10-28T01:54:27.109Z,95988.84
2022-10-28T01:55:35.073Z,95986.25
2022-10-28T01:56:40.690Z,95992.09
2022-10-28T01:57:43.403Z,95989.28
2022-10-28T01:58:45.904Z,95989.28
2022-10-28T01:59:48.637Z,95994.13
2022-10-28T02:00:50.648Z,95992.09
2022-10-28T02:01:52.547Z,95992.28
2022-10-28T02:02:56.419Z,95994.91
2022-10-28T02:03:58.557Z,95992.09
2022-10-28T02:05:34.970Z,95988.84
2022-10-28T02:06:38.887Z,95989.72
2022-10-28T02:07:40.492Z,95991.03
2022-10-28T02:09:16.041Z,95990.34
2022-10-28T02:10:30.865Z,95991.09
2022-10-28T02:11:46.131Z,95993.16
2022-10-28T02:12:54.878Z,95987.78
2022-10-28T02:14:30.289Z,95985.50
2022-10-28T02:15:48.313Z,95989.28
2022-10-28T02:16:49.759Z,95985.63
2022-10-28T02:17:57.722Z,95989.72
2022-10-28T02:19:22.675Z,95987.13
2022-10-28T02:20:41.619Z,95987.13
2022-10-28T02:21:48.823Z,95988.88
2022-10-28T02:22:57.054Z,95990.47
2022-10-28T02:24:11.590Z,95983.13
2022-10-28T02:25:25.094Z,95988.22
2022-10-28T02:26:40.942Z,95985.72
2022-10-28T02:27:45.314Z,95982.63
2022-10-28T02:29:06.247Z,95987.00
2022-10-28T02:30:32.473Z,95984.44
2022-10-28T02:31:40.353Z,95986.47
2022-10-28T02:32:48.933Z,95989.28
2022-10-28T02:33:55.831Z,95986.47
2022-10-28T02:35:01.676Z,95996.19
2022-10-28T02:36:14.172Z,95984.72
2022-10-28T02:37:25.116Z,95992.41
2022-10-28T02:38:36.287Z,95997.25
2022-10-28T02:39:43.895Z,95998.53
2022-10-28T02:40:50.173Z,95999.50
2022-10-28T02:41:58.675Z,95997.47
2022-10-28T02:43:04.383Z,96002.56
2022-10-28T02:44:11.442Z,95996.94
2022-10-28T02:45:21.172Z,96007.16
2022-10-28T02:46:26.158Z,96003.06
2022-10-28T02:47:34.393Z,96001.56
2022-10-28T02:48:59.681Z,96009.75
2022-10-28T02:50:06.979Z,96008.69
2022-10-28T02:51:16.238Z,96001.56
2022-10-28T02:52:20.778Z,96000.25
2022-10-28T02:53:36.798Z,96001.88
2022-10-28T02:54:45.814Z,96001.56
2022-10-28T02:55:52.941Z,96008.22
2022-10-28T02:57:16.955Z,95996.81
2022-10-28T02:58:18.596Z,96005.66
2022-10-28T02:59:20.170Z,96008.22
2022-10-28T03:00:24.932Z,95998.31
2022-10-28T03:01:26.677Z,96005.44
2022-10-28T03:02:28.921Z,96005.22
2022-10-28T03:03:30.463Z,96003.91
2022-10-28T03:04:32.009Z,96005.22
2022-10-28T03:05:33.578Z,96000.34
2022-10-28T03:06:35.151Z,95998.06
2022-10-28T03:07:36.674Z,95998.84
2022-10-28T03:08:38.186Z,96005.22
2022-10-28T03:09:39.714Z,95998.06
2022-10-28T03:10:41.211Z,95998.06
2022-10-28T03:11:42.779Z,95994.00
2022-10-28T03:12:44.353Z,95993.25
2022-10-28T03:13:45.929Z,95998.06
2022-10-28T03:14:47.442Z,95998.84
2022-10-28T03:15:48.957Z,95991.72
2022-10-28T03:16:50.548Z,95992.47
2022-10-28T03:17:52.381Z,95995.25
2022-10-28T03:18:54.278Z,95986.09
2022-10-28T03:19:55.847Z,95999.38
2022-10-28T03:20:59.074Z,95996.34
2022-10-28T03:22:00.883Z,95995.06
2022-10-28T03:23:02.522Z,95996.34
2022-10-28T03:24:04.317Z,95999.16
2022-10-28T03:25:06.134Z,96000.66
2022-10-28T03:26:07.713Z,95995.81
2022-10-28T03:27:09.308Z,95998.84
2022-10-28T03:28:10.821Z,95999.38
2022-10-28T03:29:12.327Z,95993.56
2022-10-28T03:30:14.693Z,95999.16
2022-10-28T03:31:17.154Z,96003.69
2022-10-28T03:32:19.007Z,95997.09
2022-10-28T03:33:20.613Z,95999.16
2022-10-28T03:34:22.155Z,95993.56
2022-10-28T03:35:24.579Z,95997.63
2022-10-28T03:36:26.116Z,95996.13
2022-10-28T03:37:27.710Z,96005.81
2022-10-28T03:38:29.447Z,96001.72
2022-10-28T03:39:30.964Z,96001.72
2022-10-28T03:40:32.528Z,96000.22
2022-10-28T03:41:34.110Z,95998.91
2022-10-28T03:42:38.826Z,96003.78
2022-10-28T03:43:42.065Z,96008.84
2022-10-28T03:44:43.570Z,96004.00
2022-10-28T03:45:45.138Z,96008.09
2022-10-28T03:46:46.630Z,96011.44
2022-10-28T03:47:48.158Z,96008.09
2022-10-28T03:48:49.720Z,96003.78
2022-10-28T03:49:51.232Z,96006.56
2022-10-28T03:50:54.198Z,96012.19
2022-10-28T03:51:55.727Z,96007.34
2022-10-28T03:52:57.255Z,96010.13
2022-10-28T03:53:58.842Z,96010.69
2022-10-28T03:55:00.386Z,96002.78
2022-10-28T03:56:02.952Z,96005.06
2022-10-28T03:57:04.468Z,96002.78
2022-10-28T03:58:06.083Z,96004.31
2022-10-28T03:59:11.758Z,96002.78
2022-10-28T04:00:15.507Z,96002.78
2022-10-28T04:01:17.147Z,95999.22
2022-10-28T04:02:18.879Z,96006.88
2022-10-28T04:03:22.120Z,96010.97
2022-10-28T04:04:27.140Z,96005.38
2022-10-28T04:05:31.472Z,96004.06
2022-10-28T04:06:33.021Z,96004.31
2022-10-28T04:07:35.008Z,96013.78
2022-10-28T04:08:37.187Z,96001.06
2022-10-28T04:09:38.710Z,96001.56
2022-10-28T04:10:44.914Z,96001.81
2022-10-28T04:11:49.386Z,96007.94
2022-10-28T04:12:51.066Z,96002.31
2022-10-28T04:13:52.866Z,96005.69
2022-10-28T04:14:54.435Z,96013.53
2022-10-28T04:15:56.589Z,96005.13
2022-10-28T04:16:58.192Z,96004.38
2022-10-28T04:17:59.852Z,96012.78
2022-10-28T04:19:01.362Z,96014.84
2022-10-28T04:20:03.427Z,96009.97
2022-10-28T04:21:05.312Z,96015.38
2022-10-28T04:22:06.902Z,96010.53
2022-10-28T04:23:09.089Z,96013.84
2022-10-28T04:24:10.695Z,96018.69
2022-10-28T04:25:12.430Z,96012.34
2022-10-28T04:26:15.408Z,96004.69
2022-10-28T04:27:16.920Z,96006.72
2022-10-28T04:28:18.473Z,96010.06
2022-10-28T04:29:20.040Z,96014.63
2022-10-28T04:30:21.799Z,96009.03
2022-10-28T04:31:23.433Z,96011.81
2022-10-28T04:32:24.955Z,96013.31
2022-10-28T04:33:26.465Z,96009.78
2022-10-28T04:34:28.027Z,96016.13
2022-10-28T04:35:29.606Z,96016.13
2022-10-28T04:36:31.187Z,96017.66
2022-10-28T04:37:32.833Z,96015.38
2022-10-28T04:38:34.461Z,96014.63
2022-10-28T04:39:35.981Z,96019.69
2022-10-28T04:40:37.661Z,96015.38
2022-10-28T04:41:40.818Z,96013.31
2022-10-28T04:42:42.398Z,96016.13
2022-10-28T04:43:44.299Z,96006.44
2022-10-28T04:44:45.815Z,96006.44
2022-10-28T04:45:47.415Z,96009.22
2022-10-28T04:46:48.930Z,96018.41
2022-10-28T04:47:50.475Z,96010.75
2022-10-28T04:48:52.190Z,96002.88
2022-10-28T04:49:53.733Z,96003.09
2022-10-28T04:50:57.529Z,96006.44
2022-10-28T04:51:59.120Z,96007.94
2022-10-28T04:53:00.754Z,96004.63
2022-10-28T04:54:02.434Z,96004.91
2022-10-28T04:55:04.414Z,96010.75
2022-10-28T04:56:06.167Z,96007.94
2022-10-28T04:57:07.851Z,96015.84
2022-10-28T04:58:10.242Z,96010.97
2022-10-28T04:59:11.818Z,96010.44
2022-10-28T05:00:13.666Z,96012.50
2022-10-28T05:01:15.482Z,96018.34
2022-10-28T05:02:17.309Z,96012.19
2022-10-28T05:03:18.983Z,96025.66
2022-10-28T05:04:20.562Z,96015.00
2022-10-28T05:05:22.411Z,96008.63
2022-10-28T05:06:23.989Z,96008.84
2022-10-28T05:07:25.764Z,96012.41
2022-10-28T05:08:27.300Z,96010.38
2022-10-28T05:09:28.798Z,96014.69
2022-10-28T05:10:31.399Z,96014.91
2022-10-28T05:11:32.970Z,96010.81
2022-10-28T05:12:34.508Z,96004.47
2022-10-28T05:13:36.037Z,96010.59
2022-10-28T05:14:37.566Z,96012.63
2022-10-28T05:15:39.071Z,96013.38
2022-10-28T05:16:40.574Z,96011.88
2022-10-28T05:17:46.891Z,96010.88
2022-10-28T05:18:48.414Z,96016.75
2022-10-28T05:19:50.025Z,96023.09
2022-10-28T05:20:54.838Z,96025.91
2022-10-28T05:21:56.414Z,96023.09
2022-10-28T05:22:58.270Z,96021.81
2022-10-28T05:24:00.023Z,96023.84
2022-10-28T05:25:01.782Z,96021.28
2022-10-28T05:26:03.373Z,96026.34
2022-10-28T05:27:05.000Z,96028.41
2022-10-28T05:28:06.523Z,96026.13
2022-10-28T05:29:08.071Z,96028.41
2022-10-28T05:30:10.447Z,96029.16
2022-10-28T05:31:12.039Z,96029.16
2022-10-28T05:32:13.549Z,96027.34
2022-10-28T05:33:15.162Z,96031.13
2022-10-28T05:34:16.685Z,96030.06
2022-10-28T05:35:18.305Z,96032.00
2022-10-28T05:36:19.998Z,96041.97
2022-10-28T05:37:21.490Z,96037.63
2022-10-28T05:38:23.055Z,96032.00
2022-10-28T05:39:24.591Z,96037.88
2022-10-28T05:40:26.107Z,96035.81
2022-10-28T05:41:27.648Z,96040.88
2022-10-28T05:42:29.202Z,96045.97
2022-10-28T05:43:30.771Z,96044.16
2022-10-28T05:44:32.373Z,96038.56
2022-10-28T05:45:33.988Z,96044.16
2022-10-28T05:46:35.553Z,96048.69
2022-10-28T05:47:39.316Z,96047.41
2022-10-28T05:48:41.686Z,96051.72
2022-10-28T05:49:43.219Z,96047.63
2022-10-28T05:50:44.714Z,96057.53
2022-10-28T05:51:49.235Z,96050.66
2022-10-28T05:52:53.875Z,96057.03
2022-10-28T05:53:55.454Z,96046.03
2022-10-28T05:54:57.021Z,96055.19
2022-10-28T05:55:58.605Z,96049.56
2022-10-28T05:57:00.120Z,96053.16
2022-10-28T05:58:03.093Z,96051.13
2022-10-28T05:59:04.654Z,96051.13
2022-10-28T06:00:06.892Z,96042.91
2022-10-28T06:01:08.889Z,96045.50
2022-10-28T06:02:14.947Z,96048.53
2022-10-28T06:03:16.534Z,96049.28
2022-10-28T06:04:18.377Z,96044.19
2022-10-28T06:05:20.431Z,96051.13
2022-10-28T06:06:21.973Z,96052.63
2022-10-28T06:07:24.626Z,96054.88
2022-10-28T06:08:26.626Z,96054.69
2022-10-28T06:09:28.813Z,96057.47
2022-10-28T06:10:30.447Z,96053.91
2022-10-28T06:11:30.429Z,96060.81
2022-10-28T06:13:38.647Z,96065.16
2022-10-28T06:14:40.168Z,96059.75
2022-10-28T06:15:41.776Z,96061.59
2022-10-28T06:16:44.647Z,96056.72
2022-10-28T06:17:47.928Z,96068.47
2022-10-28T06:18:49.687Z,96066.41
2022-10-28T06:19:51.428Z,96076.13
2022-10-28T06:20:57.255Z,96076.66
2022-10-28T06:21:58.772Z,96077.63
2022-10-28T06:23:00.373Z,96083.25
2022-10-28T06:24:02.190Z,96077.63
2022-10-28T06:25:04.222Z,96083.25
2022-10-28T06:26:05.740Z,96077.97
2022-10-28T06:27:07.284Z,96082.78
2022-10-28T06:28:10.442Z,96077.72
2022-10-28T06:29:12.134Z,96078.72
2022-10-28T06:30:13.767Z,96085.09
2022-10-28T06:31:15.330Z,96085.09
2022-10-28T06:32:16.861Z,96083.59
2022-10-28T06:33:19.034Z,96085.84
2022-10-28T06:34:20.548Z,96086.06
2022-10-28T06:35:22.096Z,96090.41
2022-10-28T06:36:23.608Z,96083.03
2022-10-28T06:37:25.211Z,96084.09
2022-10-28T06:38:28.226Z,96083.59
2022-10-28T06:39:29.715Z,96077.97
2022-10-28T06:40:31.367Z,96083.59
2022-10-28T06:41:33.329Z,96078.72
2022-10-28T06:42:35.115Z,96078.72
2022-10-28T06:43:36.626Z,96081.53
2022-10-28T06:44:38.115Z,96081.75
2022-10-28T06:45:39.652Z,96080.22
2022-10-28T06:46:42.679Z,96077.97
2022-10-28T06:47:44.221Z,96085.41
2022-10-28T06:48:45.789Z,96072.66
2022-10-28T06:49:47.355Z,96075.69
2022-10-28T06:50:49.166Z,96074.94
2022-10-28T06:51:50.675Z,96075.69
2022-10-28T06:52:52.554Z,96073.63
2022-10-28T06:53:54.093Z,96072.34
2022-10-28T06:54:55.604Z,96073.13
2022-10-28T06:55:58.290Z,96067.72
2022-10-28T06:56:59.855Z,96071.28
2022-10-28T06:58:02.425Z,96064.91
2022-10-28T06:59:03.987Z,96073.13
2022-10-28T07:00:06.175Z,96073.13
2022-10-28T07:01:08.239Z,96071.56
2022-10-28T07:02:11.962Z,96073.13
2022-10-28T07:03:13.727Z,96075.38
2022-10-28T07:04:15.335Z,96076.13
2022-10-28T07:05:16.854Z,96072.56
2022-10-28T07:06:18.417Z,96079.47
2022-10-28T07:07:19.922Z,96078.41
2022-10-28T07:08:21.473Z,96076.13
2022-10-28T07:09:23.022Z,96082.50
2022-10-28T07:10:24.612Z,96074.84
2022-10-28T07:11:26.219Z,96077.44
2022-10-28T07:12:28.038Z,96076.88
2022-10-28T07:13:29.739Z,96077.97
2022-10-28T07:14:32.047Z,96082.03
2022-10-28T07:15:33.681Z,96081.28
2022-10-28T07:16:35.216Z,96083.03
2022-10-28T07:17:36.946Z,96077.19
2022-10-28T07:18:38.477Z,96081.53
2022-10-28T07:19:40.010Z,96086.91
2022-10-28T07:20:41.528Z,96082.28
2022-10-28T07:21:43.129Z,96084.84
2022-10-28T07:22:44.636Z,96078.72
2022-10-28T07:23:46.780Z,96081.28
2022-10-28T07:24:48.778Z,96084.09
2022-10-28T07:25:57.045Z,96078.72
2022-10-28T07:26:58.618Z,96083.59
2022-10-28T07:28:00.843Z,96078.72
2022-10-28T07:29:02.395Z,96081.75
2022-10-28T07:30:04.283Z,96078.72
2022-10-28T07:31:05.834Z,96079.78
2022-10-28T07:32:07.399Z,96079.03
2022-10-28T07:33:08.923Z,96082.03
2022-10-28T07:34:10.504Z,96076.97
2022-10-28T07:35:12.087Z,96086.69
2022-10-28T07:36:13.604Z,96089.50
2022-10-28T07:37:15.255Z,96076.75
2022-10-28T07:38:16.892Z,96077.28
2022-10-28T07:39:18.556Z,96073.72
2022-10-28T07:40:24.523Z,96085.69
2022-10-28T07:41:26.241Z,96076.22
2022-10-28T07:42:27.749Z,96079.03
2022-10-28T07:43:29.265Z,96074.16
2022-10-28T07:44:31.043Z,96073.41
2022-10-28T07:45:32.623Z,96078.28
2022-10-28T07:46:34.472Z,96075.47
2022-10-28T07:47:36.088Z,96072.66
2022-10-28T07:48:38.495Z,96076.97
2022-10-28T07:49:40.000Z,96080.53
2022-10-28T07:50:41.748Z,96076.22
2022-10-28T07:51:43.251Z,96072.66
2022-10-28T07:52:44.787Z,96074.94
2022-10-28T07:53:46.354Z,96076.44
2022-10-28T07:54:48.102Z,96079.78
2022-10-28T07:56:04.272Z,96074.47
2022-10-28T07:57:05.801Z,96074.16
2022-10-28T07:58:07.397Z,96076.22
2022-10-28T07:59:09.031Z,96065.50
2022-10-28T08:00:11.058Z,96069.63
2022-10-28T08:01:15.364Z,96074.47
2022-10-28T08:02:19.741Z,96072.22
2022-10-28T08:03:21.704Z,96069.41
2022-10-28T08:04:23.275Z,96072.22
2022-10-28T08:05:24.793Z,96076.28
2022-10-28T08:06:26.340Z,96077.59
2022-10-28T08:07:27.996Z,96067.66
2022-10-28T08:08:29.689Z,96070.47
2022-10-28T08:09:31.288Z,96070.47
2022-10-28T08:10:32.805Z,96071.72
2022-10-28T08:11:34.356Z,96078.13
2022-10-28T08:12:35.924Z,96075.84
2022-10-28T08:13:40.156Z,96081.44
2022-10-28T08:14:42.018Z,96077.13
2022-10-28T08:15:43.513Z,96074.31
2022-10-28T08:16:45.541Z,96079.94
2022-10-28T08:17:51.524Z,96071.28
2022-10-28T08:18:53.220Z,96072.06
2022-10-28T08:19:54.773Z,96079.19
2022-10-28T08:22:02.910Z,96078.44
2022-10-28T08:23:06.735Z,96069.78
2022-10-28T08:24:09.261Z,96081.00
2022-10-28T08:25:10.863Z,96075.38
2022-10-28T08:26:16.500Z,96081.00
2022-10-28T08:27:18.005Z,96070.53
2022-10-28T08:28:19.827Z,96079.19
2022-10-28T08:29:21.823Z,96077.69
2022-10-28T08:30:24.923Z,96078.19
2022-10-28T08:31:26.448Z,96072.81
2022-10-28T08:32:28.072Z,96076.69
2022-10-28T08:33:32.629Z,96078.94
2022-10-28T08:34:35.102Z,96081.00
2022-10-28T08:35:39.594Z,96077.44
2022-10-28T08:36:41.267Z,96072.56
2022-10-28T08:37:46.092Z,96073.13
2022-10-28T08:38:47.633Z,96072.38
2022-10-28T08:39:49.125Z,96074.63
2022-10-28T08:41:12.497Z,96077.75
2022-10-28T08:42:20.353Z,96070.84
2022-10-28T08:43:46.211Z,96072.38
2022-10-28T08:45:25.447Z,96076.44
2022-10-28T08:46:39.118Z,96071.59
2022-10-28T08:47:49.760Z,96069.31
2022-10-28T08:48:51.380Z,96066.53
2022-10-28T08:49:58.716Z,96069.63
2022-10-28T08:51:11.353Z,96068.13
2022-10-28T08:52:28.346Z,96064.78
2022-10-28T08:53:40.367Z,96059.41
2022-10-28T08:54:57.651Z,96059.16
2022-10-28T08:56:14.227Z,96062.97
2022-10-28T08:57:20.890Z,96065.97
2022-10-28T08:58:26.583Z,96066.75
2022-10-28T08:59:33.883Z,96064.16
2022-10-28T09:00:36.595Z,96064.16
2022-10-28T09:01:49.865Z,96065.22
2022-10-28T09:03:18.220Z,96063.72
2022-10-28T09:04:39.422Z,96064.16
2022-10-28T09:05:50.104Z,96059.84
2022-10-28T09:06:52.040Z,96059.31
2022-10-28T09:07:55.749Z,96057.03
2022-10-28T09:08:59.000Z,96055.53
2022-10-28T09:10:00.561Z,96056.81
2022-10-28T09:11:31.099Z,96060.69
2022-10-28T09:13:17.082Z,96050.22
2022-10-28T09:14:32.173Z,96045.28
2022-10-28T09:15:47.362Z,96046.28
2022-10-28T09:16:54.295Z,96056.00
2022-10-28T09:17:59.825Z,96048.09
2022-10-28T09:19:14.873Z,96051.19
2022-10-28T09:20:31.801Z,96047.34
2022-10-28T09:21:46.990Z,96045.59
2022-10-28T09:23:00.113Z,96041.50
2022-10-28T09:24:15.378Z,96041.72
2022-10-28T09:25:31.847Z,96041.72
2022-10-28T09:26:36.137Z,96044.78
2022-10-28T09:27:37.614Z,96044.78
2022-10-28T09:29:04.550Z,96040.22
2022-10-28T09:30:29.440Z,96034.91
2022-10-28T09:31:46.690Z,96027.50
2022-10-28T09:33:06.922Z,96023.59
2022-10-28T09:34:19.229Z,96021.88
2022-10-28T09:35:26.702Z,96021.88
2022-10-28T09:36:34.908Z,96024.44
2022-10-28T09:37:44.839Z,96020.13
2022-10-28T09:38:47.847Z,96016.47
2022-10-28T09:40:00.330Z,96018.09
2022-10-28T09:41:11.733Z,96024.69
2022-10-28T09:42:20.830Z,96016.03
2022-10-28T09:43:35.296Z,96016.28
2022-10-28T09:44:45.249Z,96017.78
2022-10-28T09:45:51.047Z,96015.19
2022-10-28T09:46:56.263Z,96013.69
2022-10-28T09:48:06.025Z,96010.88
2022-10-28T09:49:20.859Z,96007.84
2022-10-28T09:50:27.141Z,96003.97
2022-10-28T09:51:37.844Z,96000.19
2022-10-28T09:52:47.454Z,95996.63
2022-10-28T09:53:57.686Z,95996.84
2022-10-28T09:55:02.980Z,95994.28
2022-10-28T09:56:06.434Z,95995.78
2022-10-28T09:57:08.213Z,95988.88
2022-10-28T09:58:13.128Z,95994.28
2022-10-28T09:59:15.891Z,95991.25
2022-10-28T10:00:17.937Z,95992.00
2022-10-28T10:01:20.281Z,95994.03
2022-10-28T10:02:30.867Z,95988.44
2022-10-28T10:03:33.099Z,95989.41
2022-10-28T10:04:35.745Z,95987.38
2022-10-28T10:05:52.823Z,95987.44
2022-10-28T10:07:19.196Z,95990.78
2022-10-28T10:08:22.664Z,95986.63
2022-10-28T10:09:30.694Z,95989.41
2022-10-28T10:10:51.046Z,95981.75
2022-10-28T10:11:55.877Z,95980.25
2022-10-28T10:13:01.790Z,95987.13
2022-10-28T10:14:08.100Z,95983.06
2022-10-28T10:15:16.321Z,95980.03
2022-10-28T10:16:25.071Z,95981.53
2022-10-28T10:17:41.934Z,95984.13
2022-10-28T10:18:48.567Z,95980.25
2022-10-28T10:20:11.253Z,95974.19
2022-10-28T10:21:12.784Z,95978.19
2022-10-28T10:22:33.293Z,95971.41
2022-10-28T10:23:36.964Z,95975.91
2022-10-28T10:24:38.573Z,95970.31
2022-10-28T10:25:40.220Z,95971.84
2022-10-28T10:26:41.733Z,95971.84
2022-10-28T10:27:49.772Z,95965.47
2022-10-28T10:28:51.908Z,95964.19
2022-10-28T10:29:54.790Z,95963.19
2022-10-28T10:30:59.064Z,95969.56
2022-10-28T10:32:18.305Z,95962.75
2022-10-28T10:33:28.391Z,95954.78
2022-10-28T10:34:30.694Z,95955.75
2022-10-28T10:35:34.562Z,95956.28
2022-10-28T10:36:36.176Z,95959.09
2022-10-28T10:37:43.309Z,95955.84
2022-10-28T10:38:54.339Z,95960.94
2022-10-28T10:40:06.935Z,95944.84
2022-10-28T10:41:08.478Z,95950.91
2022-10-28T10:42:17.460Z,95961.13
2022-10-28T10:43:18.944Z,95948.66
2022-10-28T10:44:20.411Z,95957.28
2022-10-28T10:45:27.219Z,95950.91
2022-10-28T10:46:28.754Z,95944.53
2022-10-28T10:47:30.301Z,95946.06
2022-10-28T10:48:38.572Z,95943.78
2022-10-28T10:49:40.079Z,95953.72
2022-10-28T10:50:51.068Z,95946.16
2022-10-28T10:51:57.826Z,95946.81
2022-10-28T10:53:01.505Z,95941.19
2022-10-28T10:54:03.418Z,95946.81
2022-10-28T10:55:08.304Z,95938.94
2022-10-28T10:56:13.100Z,95935.59
2022-10-28T10:57:22.351Z,95942.25
2022-10-28T10:58:26.792Z,95936.88
2022-10-28T10:59:31.372Z,95937.09
2022-10-28T11:00:45.208Z,95930.72
2022-10-28T11:01:46.838Z,95933.00
2022-10-28T11:02:52.174Z,95933.53
2022-10-28T11:04:06.249Z,95928.47
2022-10-28T11:05:10.329Z,95928.69
2022-10-28T11:06:23.948Z,95929.00
2022-10-28T11:07:28.329Z,95928.69
2022-10-28T11:08:44.263Z,95925.22
2022-10-28T11:09:49.495Z,95929.97
2022-10-28T11:11:03.909Z,95920.06
2022-10-28T11:12:15.592Z,95922.84
2022-10-28T11:13:27.167Z,95924.38
2022-10-28T11:14:31.388Z,95926.66
2022-10-28T11:15:33.209Z,95922.63
2022-10-28T11:16:48.048Z,95917.88
2022-10-28T11:17:57.488Z,95916.81
2022-10-28T11:19:18.818Z,95921.13
2022-10-28T11:20:58.778Z,95912.38
2022-10-28T11:22:12.189Z,95915.44
2022-10-28T11:23:19.878Z,95911.63
2022-10-28T11:24:29.179Z,95910.13
2022-10-28T11:25:37.674Z,95908.59
2022-10-28T11:27:09.961Z,95912.38
2022-10-28T11:28:30.046Z,95910.56
2022-10-28T11:29:31.802Z,95912.53
2022-10-28T11:30:54.804Z,95904.22
2022-10-28T11:32:22.114Z,95909.50
2022-10-28T11:33:55.645Z,95911.09
2022-10-28T11:35:09.331Z,95904.66
2022-10-28T11:36:25.117Z,95909.81
2022-10-28T11:37:47.490Z,95906.47
2022-10-28T11:38:56.075Z,95904.97
2022-10-28T11:40:21.057Z,95898.28
2022-10-28T11:41:28.420Z,95905.72
2022-10-28T11:43:01.952Z,95903.66
2022-10-28T11:44:18.518Z,95899.78
2022-10-28T11:45:31.338Z,95895.69
2022-10-28T11:47:05.174Z,95901.09
2022-10-28T11:48:25.239Z,95894.81
2022-10-28T11:49:26.703Z,95894.94
2022-10-28T11:50:46.588Z,95887.06
2022-10-28T11:52:15.677Z,95886.09
2022-10-28T11:53:57.072Z,95890.38
2022-10-28T11:55:16.713Z,95889.88
2022-10-28T11:56:39.490Z,95889.63
2022-10-28T11:58:05.944Z,95887.81
2022-10-28T11:59:22.571Z,95880.34
2022-10-28T12:00:41.964Z,95874.97
2022-10-28T12:02:04.966Z,95880.34
2022-10-28T12:03:27.954Z,95884.69
2022-10-28T12:04:47.710Z,95882.97
2022-10-28T12:06:09.705Z,95868.38
2022-10-28T12:07:23.436Z,95886.22
2022-10-28T12:08:46.213Z,95876.28
2022-10-28T12:10:42.009Z,95877.34
2022-10-28T12:12:22.466Z,95878.09
2022-10-28T12:13:26.527Z,95871.19
2022-10-28T12:15:03.942Z,95881.47
2022-10-28T12:16:23.853Z,95872.19
2022-10-28T12:17:58.376Z,95876.59
2022-10-28T12:19:08.955Z,95872.19
2022-10-28T12:20:27.338Z,95871.19
2022-10-28T12:21:43.338Z,95867.63
2022-10-28T12:22:58.080Z,95874.53
2022-10-28T12:24:00.774Z,95872.94
2022-10-28T12:25:09.925Z,95866.56
2022-10-28T12:26:16.060Z,95875.19
2022-10-28T12:27:21.444Z,95870.88
2022-10-28T12:28:27.825Z,95873.69
2022-10-28T12:29:44.321Z,95870.66
2022-10-28T12:30:47.519Z,95872.19
2022-10-28T12:32:04.482Z,95870.44
2022-10-28T12:33:37.166Z,95875.84
2022-10-28T12:34:45.566Z,95873.47
2022-10-28T12:36:05.427Z,95874.00
2022-10-28T12:37:13.807Z,95867.88
2022-10-28T12:38:47.477Z,95874.00
2022-10-28T12:40:04.883Z,95868.31
2022-10-28T12:41:15.771Z,95866.78
2022-10-28T12:42:40.153Z,95863.97
2022-10-28T12:43:54.721Z,95858.34
2022-10-28T12:45:00.685Z,95860.09
2022-10-28T12:46:02.616Z,95857.50
2022-10-28T12:47:22.106Z,95866.78
2022-10-28T12:48:51.596Z,95858.91
2022-10-28T12:49:56.199Z,95856.75
2022-10-28T12:51:02.972Z,95858.78
2022-10-28T12:52:15.358Z,95864.41
2022-10-28T12:53:27.448Z,95861.38
2022-10-28T12:54:42.129Z,95853.72
2022-10-28T12:55:56.185Z,95851.69
2022-10-28T12:57:12.828Z,95859.88
2022-10-28T12:58:17.636Z,95853.41
2022-10-28T12:59:52.125Z,95852.53
2022-10-28T13:01:09.739Z,95854.03
2022-10-28T13:02:21.225Z,95859.88
2022-10-28T13:03:22.981Z,95851.34
2022-10-28T13:04:24.577Z,95847.56
2022-10-28T13:05:31.442Z,95851.69
2022-10-28T13:07:08.009Z,95852.75
2022-10-28T13:08:35.831Z,95839.69
2022-10-28T13:10:01.663Z,95849.09
2022-10-28T13:11:21.537Z,95843.69
2022-10-28T13:12:36.829Z,95857.59